sensor_id;sensor_type;location;lat;lon;timestamp;P1;durP1;ratioP1;P2;durP2;ratioP2
26062;SDS011;13837;48.562;12.108;2022-09-28T00:01:55;10.13;;;9.60;;
26062;SDS011;13837;48.562;12.108;2022-09-28T00:04:21;10.32;;;9.82;;
26062;SDS011;13837;48.562;12.108;2022-09-28T00:06:47;11.15;;;10.60;;
26062;SDS011;13837;48.562;12.108;2022-09-28T00:09:16;11.10;;;10.48;;
26062;SDS011;13837;48.562;12.108;2022-09-28T00:11:42;11.18;;;10.65;;
26062;SDS011;13837;48.562;12.108;2022-09-28T00:14:08;10.70;;;10.10;;
26062;SDS011;13837;48.562;12.108;2022-09-28T00:16:39;10.60;;;10.10;;
26062;SDS011;13837;48.562;12.108;2022-09-28T00:19:07;10.15;;;9.63;;
26062;SDS011;13837;48.562;12.108;2022-09-28T00:21:35;10.43;;;9.80;;
26062;SDS011;13837;48.562;12.108;2022-09-28T00:24:03;12.75;;;11.73;;
26062;SDS011;13837;48.562;12.108;2022-09-28T00:26:44;11.05;;;10.45;;
26062;SDS011;13837;48.562;12.108;2022-09-28T00:29:16;10.32;;;9.73;;
26062;SDS011;13837;48.562;12.108;2022-09-28T00:31:45;10.50;;;10.00;;
26062;SDS011;13837;48.562;12.108;2022-09-28T00:34:12;10.45;;;9.95;;
26062;SDS011;13837;48.562;12.108;2022-09-28T00:36:41;9.70;;;9.20;;
26062;SDS011;13837;48.562;12.108;2022-09-28T00:41:34;10.57;;;10.07;;
26062;SDS011;13837;48.562;12.108;2022-09-28T00:46:54;9.73;;;9.23;;
26062;SDS011;13837;48.562;12.108;2022-09-28T00:49:37;11.77;;;10.75;;
26062;SDS011;13837;48.562;12.108;2022-09-28T00:52:08;10.60;;;10.00;;
26062;SDS011;13837;48.562;12.108;2022-09-28T00:54:38;13.93;;;12.85;;
26062;SDS011;13837;48.562;12.108;2022-09-28T00:57:05;10.75;;;10.07;;
26062;SDS011;13837;48.562;12.108;2022-09-28T00:59:31;10.85;;;10.20;;
26062;SDS011;13837;48.562;12.108;2022-09-28T01:01:58;10.00;;;9.60;;
26062;SDS011;13837;48.562;12.108;2022-09-28T01:04:24;9.60;;;9.00;;
26062;SDS011;13837;48.562;12.108;2022-09-28T01:06:50;9.95;;;9.45;;
26062;SDS011;13837;48.562;12.108;2022-09-28T01:09:16;9.85;;;9.35;;
26062;SDS011;13837;48.562;12.108;2022-09-28T01:11:43;9.48;;;9.07;;
26062;SDS011;13837;48.562;12.108;2022-09-28T01:14:11;9.10;;;8.60;;
26062;SDS011;13837;48.562;12.108;2022-09-28T01:25:12;9.05;;;8.65;;
26062;SDS011;13837;48.562;12.108;2022-09-28T01:27:50;9.48;;;8.95;;
26062;SDS011;13837;48.562;12.108;2022-09-28T01:30:19;9.00;;;8.40;;
26062;SDS011;13837;48.562;12.108;2022-09-28T01:35:19;8.50;;;8.10;;
26062;SDS011;13837;48.562;12.108;2022-09-28T01:37:54;9.15;;;8.75;;
26062;SDS011;13837;48.562;12.108;2022-09-28T01:40:25;8.95;;;8.50;;
26062;SDS011;13837;48.562;12.108;2022-09-28T01:43:03;8.85;;;8.43;;
26062;SDS011;13837;48.562;12.108;2022-09-28T01:45:43;10.25;;;9.65;;
26062;SDS011;13837;48.562;12.108;2022-09-28T01:48:13;10.30;;;9.65;;
26062;SDS011;13837;48.562;12.108;2022-09-28T01:50:44;9.80;;;9.10;;
26062;SDS011;13837;48.562;12.108;2022-09-28T01:53:16;9.93;;;9.02;;
26062;SDS011;13837;48.562;12.108;2022-09-28T01:55:49;9.50;;;9.10;;
26062;SDS011;13837;48.562;12.108;2022-09-28T02:01:02;9.55;;;9.15;;
26062;SDS011;13837;48.562;12.108;2022-09-28T02:03:42;9.82;;;9.27;;
26062;SDS011;13837;48.562;12.108;2022-09-28T02:06:30;10.10;;;9.35;;
26062;SDS011;13837;48.562;12.108;2022-09-28T02:09:09;10.13;;;9.57;;
26062;SDS011;13837;48.562;12.108;2022-09-28T02:11:42;9.77;;;9.18;;
26062;SDS011;13837;48.562;12.108;2022-09-28T02:14:14;8.70;;;8.20;;
26062;SDS011;13837;48.562;12.108;2022-09-28T02:16:45;9.43;;;8.73;;
26062;SDS011;13837;48.562;12.108;2022-09-28T02:19:18;9.50;;;9.07;;
26062;SDS011;13837;48.562;12.108;2022-09-28T02:26:50;9.18;;;8.50;;
26062;SDS011;13837;48.562;12.108;2022-09-28T02:29:17;9.32;;;8.73;;
26062;SDS011;13837;48.562;12.108;2022-09-28T02:31:43;8.18;;;7.78;;
26062;SDS011;13837;48.562;12.108;2022-09-28T02:34:09;8.75;;;8.25;;
26062;SDS011;13837;48.562;12.108;2022-09-28T02:36:35;9.43;;;8.93;;
26062;SDS011;13837;48.562;12.108;2022-09-28T02:39:01;9.20;;;8.80;;
26062;SDS011;13837;48.562;12.108;2022-09-28T03:00:14;8.38;;;7.97;;
26062;SDS011;13837;48.562;12.108;2022-09-28T03:06:03;9.23;;;8.63;;
26062;SDS011;13837;48.562;12.108;2022-09-28T03:08:46;9.48;;;8.93;;
26062;SDS011;13837;48.562;12.108;2022-09-28T03:11:32;8.82;;;8.32;;
26062;SDS011;13837;48.562;12.108;2022-09-28T03:14:02;8.65;;;8.10;;
26062;SDS011;13837;48.562;12.108;2022-09-28T03:16:41;8.30;;;7.90;;
26062;SDS011;13837;48.562;12.108;2022-09-28T03:19:09;8.20;;;7.70;;
26062;SDS011;13837;48.562;12.108;2022-09-28T03:21:40;8.05;;;7.60;;
26062;SDS011;13837;48.562;12.108;2022-09-28T03:24:06;8.10;;;7.80;;
26062;SDS011;13837;48.562;12.108;2022-09-28T03:26:34;8.15;;;7.85;;
26062;SDS011;13837;48.562;12.108;2022-09-28T03:29:00;8.60;;;8.07;;
26062;SDS011;13837;48.562;12.108;2022-09-28T03:31:26;8.57;;;8.23;;
26062;SDS011;13837;48.562;12.108;2022-09-28T03:33:52;8.57;;;8.18;;
26062;SDS011;13837;48.562;12.108;2022-09-28T03:36:17;8.35;;;8.05;;
26062;SDS011;13837;48.562;12.108;2022-09-28T03:38:44;8.48;;;8.10;;
26062;SDS011;13837;48.562;12.108;2022-09-28T03:41:09;8.63;;;8.23;;
26062;SDS011;13837;48.562;12.108;2022-09-28T03:43:38;9.82;;;9.20;;
26062;SDS011;13837;48.562;12.108;2022-09-28T03:46:04;9.50;;;9.00;;
26062;SDS011;13837;48.562;12.108;2022-09-28T03:48:36;10.07;;;9.18;;
26062;SDS011;13837;48.562;12.108;2022-09-28T03:51:03;9.57;;;8.88;;
26062;SDS011;13837;48.562;12.108;2022-09-28T03:53:31;9.65;;;9.07;;
26062;SDS011;13837;48.562;12.108;2022-09-28T03:56:02;9.40;;;8.80;;
26062;SDS011;13837;48.562;12.108;2022-09-28T03:58:30;8.85;;;8.43;;
26062;SDS011;13837;48.562;12.108;2022-09-28T04:01:00;8.85;;;8.25;;
26062;SDS011;13837;48.562;12.108;2022-09-28T04:03:30;9.30;;;8.70;;
26062;SDS011;13837;48.562;12.108;2022-09-28T04:05:56;9.68;;;8.98;;
26062;SDS011;13837;48.562;12.108;2022-09-28T04:08:22;7.85;;;7.45;;
26062;SDS011;13837;48.562;12.108;2022-09-28T04:10:47;8.85;;;8.35;;
26062;SDS011;13837;48.562;12.108;2022-09-28T04:13:13;8.70;;;8.20;;
26062;SDS011;13837;48.562;12.108;2022-09-28T04:15:40;7.90;;;7.25;;
26062;SDS011;13837;48.562;12.108;2022-09-28T04:18:10;9.18;;;8.57;;
26062;SDS011;13837;48.562;12.108;2022-09-28T04:21:04;9.82;;;9.13;;
26062;SDS011;13837;48.562;12.108;2022-09-28T04:23:37;11.13;;;10.15;;
26062;SDS011;13837;48.562;12.108;2022-09-28T04:26:04;12.45;;;11.52;;
26062;SDS011;13837;48.562;12.108;2022-09-28T04:28:31;13.25;;;12.25;;
26062;SDS011;13837;48.562;12.108;2022-09-28T04:31:18;15.15;;;13.65;;
26062;SDS011;13837;48.562;12.108;2022-09-28T04:33:45;16.65;;;15.10;;
26062;SDS011;13837;48.562;12.108;2022-09-28T04:36:11;14.65;;;13.05;;
26062;SDS011;13837;48.562;12.108;2022-09-28T04:38:37;14.18;;;12.98;;
26062;SDS011;13837;48.562;12.108;2022-09-28T04:41:03;13.80;;;12.57;;
26062;SDS011;13837;48.562;12.108;2022-09-28T04:43:30;11.63;;;10.63;;
26062;SDS011;13837;48.562;12.108;2022-09-28T04:46:02;11.68;;;10.82;;
26062;SDS011;13837;48.562;12.108;2022-09-28T04:48:39;9.18;;;8.68;;
26062;SDS011;13837;48.562;12.108;2022-09-28T04:51:26;9.43;;;8.98;;
26062;SDS011;13837;48.562;12.108;2022-09-28T04:53:54;9.32;;;8.52;;
26062;SDS011;13837;48.562;12.108;2022-09-28T04:56:20;9.70;;;9.10;;
26062;SDS011;13837;48.562;12.108;2022-09-28T04:58:45;9.18;;;8.57;;
26062;SDS011;13837;48.562;12.108;2022-09-28T05:01:12;9.43;;;8.60;;
26062;SDS011;13837;48.562;12.108;2022-09-28T05:04:12;10.10;;;9.35;;
26062;SDS011;13837;48.562;12.108;2022-09-28T05:06:46;9.15;;;8.48;;
26062;SDS011;13837;48.562;12.108;2022-09-28T05:09:12;8.98;;;8.23;;
26062;SDS011;13837;48.562;12.108;2022-09-28T05:11:38;11.20;;;9.27;;
26062;SDS011;13837;48.562;12.108;2022-09-28T05:14:10;9.60;;;8.80;;
26062;SDS011;13837;48.562;12.108;2022-09-28T05:16:37;9.75;;;9.00;;
26062;SDS011;13837;48.562;12.108;2022-09-28T05:19:35;9.77;;;9.10;;
26062;SDS011;13837;48.562;12.108;2022-09-28T05:22:02;9.80;;;9.07;;
26062;SDS011;13837;48.562;12.108;2022-09-28T05:24:36;9.10;;;8.50;;
26062;SDS011;13837;48.562;12.108;2022-09-28T05:27:01;9.80;;;8.85;;
26062;SDS011;13837;48.562;12.108;2022-09-28T05:29:28;8.15;;;7.75;;
26062;SDS011;13837;48.562;12.108;2022-09-28T05:32:12;8.07;;;7.40;;
26062;SDS011;13837;48.562;12.108;2022-09-28T05:35:10;8.65;;;8.25;;
26062;SDS011;13837;48.562;12.108;2022-09-28T05:37:43;10.02;;;9.45;;
26062;SDS011;13837;48.562;12.108;2022-09-28T05:40:09;9.90;;;9.25;;
26062;SDS011;13837;48.562;12.108;2022-09-28T05:42:36;9.88;;;9.18;;
26062;SDS011;13837;48.562;12.108;2022-09-28T05:45:02;9.82;;;9.32;;
26062;SDS011;13837;48.562;12.108;2022-09-28T05:47:28;9.05;;;8.63;;
26062;SDS011;13837;48.562;12.108;2022-09-28T05:49:54;9.10;;;8.60;;
26062;SDS011;13837;48.562;12.108;2022-09-28T05:52:20;9.23;;;8.70;;
26062;SDS011;13837;48.562;12.108;2022-09-28T05:54:46;10.20;;;9.45;;
26062;SDS011;13837;48.562;12.108;2022-09-28T05:57:12;9.05;;;8.60;;
26062;SDS011;13837;48.562;12.108;2022-09-28T05:59:38;8.68;;;8.27;;
26062;SDS011;13837;48.562;12.108;2022-09-28T06:02:04;8.85;;;8.55;;
26062;SDS011;13837;48.562;12.108;2022-09-28T06:04:30;8.95;;;8.50;;
26062;SDS011;13837;48.562;12.108;2022-09-28T06:06:57;8.75;;;8.38;;
26062;SDS011;13837;48.562;12.108;2022-09-28T06:09:23;8.70;;;8.40;;
26062;SDS011;13837;48.562;12.108;2022-09-28T06:12:07;8.65;;;8.15;;
26062;SDS011;13837;48.562;12.108;2022-09-28T06:14:43;8.25;;;7.80;;
26062;SDS011;13837;48.562;12.108;2022-09-28T06:17:10;8.85;;;8.35;;
26062;SDS011;13837;48.562;12.108;2022-09-28T06:19:36;8.75;;;8.35;;
26062;SDS011;13837;48.562;12.108;2022-09-28T06:22:24;8.10;;;7.80;;
26062;SDS011;13837;48.562;12.108;2022-09-28T06:24:57;8.05;;;7.70;;
26062;SDS011;13837;48.562;12.108;2022-09-28T06:27:23;7.97;;;7.68;;
26062;SDS011;13837;48.562;12.108;2022-09-28T06:29:49;8.50;;;8.05;;
26062;SDS011;13837;48.562;12.108;2022-09-28T06:32:15;8.20;;;7.85;;
26062;SDS011;13837;48.562;12.108;2022-09-28T06:34:43;13.63;;;13.10;;
26062;SDS011;13837;48.562;12.108;2022-09-28T06:37:09;8.35;;;7.95;;
26062;SDS011;13837;48.562;12.108;2022-09-28T06:39:35;8.93;;;8.32;;
26062;SDS011;13837;48.562;12.108;2022-09-28T06:42:01;7.80;;;7.45;;
26062;SDS011;13837;48.562;12.108;2022-09-28T06:44:37;8.10;;;7.80;;
26062;SDS011;13837;48.562;12.108;2022-09-28T06:47:24;8.93;;;8.43;;
26062;SDS011;13837;48.562;12.108;2022-09-28T06:50:08;7.90;;;7.50;;
26062;SDS011;13837;48.562;12.108;2022-09-28T06:52:55;8.13;;;7.82;;
26062;SDS011;13837;48.562;12.108;2022-09-28T06:55:47;8.07;;;7.68;;
26062;SDS011;13837;48.562;12.108;2022-09-28T06:58:14;7.75;;;7.45;;
26062;SDS011;13837;48.562;12.108;2022-09-28T07:00:42;8.23;;;7.93;;
26062;SDS011;13837;48.562;12.108;2022-09-28T07:03:12;9.07;;;8.48;;
26062;SDS011;13837;48.562;12.108;2022-09-28T07:05:57;8.80;;;8.30;;
26062;SDS011;13837;48.562;12.108;2022-09-28T07:08:39;8.57;;;8.18;;
26062;SDS011;13837;48.562;12.108;2022-09-28T07:11:37;9.30;;;8.82;;
26062;SDS011;13837;48.562;12.108;2022-09-28T07:14:24;8.75;;;8.35;;
26062;SDS011;13837;48.562;12.108;2022-09-28T07:16:51;8.13;;;7.82;;
26062;SDS011;13837;48.562;12.108;2022-09-28T07:19:17;7.88;;;7.57;;
26062;SDS011;13837;48.562;12.108;2022-09-28T07:21:43;8.88;;;8.38;;
26062;SDS011;13837;48.562;12.108;2022-09-28T07:24:08;8.63;;;8.02;;
26062;SDS011;13837;48.562;12.108;2022-09-28T07:26:36;8.48;;;7.97;;
26062;SDS011;13837;48.562;12.108;2022-09-28T07:29:08;8.27;;;7.72;;
26062;SDS011;13837;48.562;12.108;2022-09-28T07:31:53;8.45;;;8.00;;
26062;SDS011;13837;48.562;12.108;2022-09-28T07:34:27;8.57;;;7.90;;
26062;SDS011;13837;48.562;12.108;2022-09-28T07:36:58;9.23;;;8.80;;
26062;SDS011;13837;48.562;12.108;2022-09-28T07:39:24;8.50;;;8.10;;
26062;SDS011;13837;48.562;12.108;2022-09-28T07:41:50;8.98;;;8.18;;
26062;SDS011;13837;48.562;12.108;2022-09-28T07:44:15;7.65;;;7.18;;
26062;SDS011;13837;48.562;12.108;2022-09-28T07:46:44;9.10;;;8.27;;
26062;SDS011;13837;48.562;12.108;2022-09-28T07:49:19;8.60;;;7.90;;
26062;SDS011;13837;48.562;12.108;2022-09-28T07:52:06;7.63;;;7.00;;
26062;SDS011;13837;48.562;12.108;2022-09-28T07:54:41;7.70;;;7.30;;
26062;SDS011;13837;48.562;12.108;2022-09-28T07:57:39;8.52;;;7.82;;
26062;SDS011;13837;48.562;12.108;2022-09-28T08:00:20;8.20;;;7.70;;
26062;SDS011;13837;48.562;12.108;2022-09-28T08:02:46;7.57;;;7.18;;
26062;SDS011;13837;48.562;12.108;2022-09-28T08:05:17;7.57;;;7.28;;
26062;SDS011;13837;48.562;12.108;2022-09-28T08:07:43;7.00;;;6.70;;
26062;SDS011;13837;48.562;12.108;2022-09-28T08:10:10;7.60;;;7.07;;
26062;SDS011;13837;48.562;12.108;2022-09-28T08:12:58;9.38;;;8.45;;
26062;SDS011;13837;48.562;12.108;2022-09-28T08:16:00;8.18;;;7.57;;
26062;SDS011;13837;48.562;12.108;2022-09-28T08:18:52;7.18;;;6.88;;
26062;SDS011;13837;48.562;12.108;2022-09-28T08:21:19;8.32;;;7.82;;
26062;SDS011;13837;48.562;12.108;2022-09-28T08:24:05;8.00;;;7.60;;
26062;SDS011;13837;48.562;12.108;2022-09-28T08:26:32;8.63;;;8.02;;
26062;SDS011;13837;48.562;12.108;2022-09-28T08:28:58;7.43;;;7.00;;
26062;SDS011;13837;48.562;12.108;2022-09-28T08:31:42;7.70;;;7.20;;
26062;SDS011;13837;48.562;12.108;2022-09-28T08:34:36;10.40;;;9.60;;
26062;SDS011;13837;48.562;12.108;2022-09-28T08:37:18;8.90;;;8.30;;
26062;SDS011;13837;48.562;12.108;2022-09-28T08:39:44;8.50;;;7.97;;
26062;SDS011;13837;48.562;12.108;2022-09-28T08:42:28;8.90;;;8.40;;
26062;SDS011;13837;48.562;12.108;2022-09-28T08:45:17;8.80;;;8.30;;
26062;SDS011;13837;48.562;12.108;2022-09-28T08:48:20;8.90;;;8.50;;
26062;SDS011;13837;48.562;12.108;2022-09-28T08:51:27;8.52;;;8.02;;
26062;SDS011;13837;48.562;12.108;2022-09-28T08:57:37;9.73;;;9.13;;
26062;SDS011;13837;48.562;12.108;2022-09-28T09:00:13;7.72;;;7.40;;
26062;SDS011;13837;48.562;12.108;2022-09-28T09:02:45;8.52;;;8.13;;
26062;SDS011;13837;48.562;12.108;2022-09-28T09:05:15;8.90;;;8.40;;
26062;SDS011;13837;48.562;12.108;2022-09-28T09:08:31;13.18;;;11.80;;
26062;SDS011;13837;48.562;12.108;2022-09-28T09:14:17;25.08;;;21.85;;
26062;SDS011;13837;48.562;12.108;2022-09-28T09:19:53;9.90;;;9.40;;
26062;SDS011;13837;48.562;12.108;2022-09-28T09:22:51;9.30;;;8.88;;
26062;SDS011;13837;48.562;12.108;2022-09-28T09:25:26;9.20;;;8.73;;
26062;SDS011;13837;48.562;12.108;2022-09-28T09:30:46;9.20;;;8.80;;
26062;SDS011;13837;48.562;12.108;2022-09-28T09:36:52;8.30;;;7.90;;
26062;SDS011;13837;48.562;12.108;2022-09-28T09:45:46;9.15;;;8.65;;
26062;SDS011;13837;48.562;12.108;2022-09-28T09:53:58;9.38;;;8.98;;
26062;SDS011;13837;48.562;12.108;2022-09-28T09:56:33;8.10;;;7.80;;
26062;SDS011;13837;48.562;12.108;2022-09-28T09:59:31;7.93;;;7.53;;
26062;SDS011;13837;48.562;12.108;2022-09-28T10:07:52;7.82;;;7.43;;
26062;SDS011;13837;48.562;12.108;2022-09-28T10:10:36;7.70;;;7.20;;
26062;SDS011;13837;48.562;12.108;2022-09-28T10:13:15;9.40;;;8.10;;
26062;SDS011;13837;48.562;12.108;2022-09-28T10:15:42;7.45;;;7.15;;
26062;SDS011;13837;48.562;12.108;2022-09-28T10:18:20;7.93;;;7.43;;
26062;SDS011;13837;48.562;12.108;2022-09-28T10:21:05;6.90;;;6.60;;
26062;SDS011;13837;48.562;12.108;2022-09-28T10:23:47;7.55;;;7.25;;
26062;SDS011;13837;48.562;12.108;2022-09-28T10:26:23;7.60;;;7.20;;
26062;SDS011;13837;48.562;12.108;2022-09-28T10:28:55;8.88;;;8.23;;
26062;SDS011;13837;48.562;12.108;2022-09-28T10:34:04;7.25;;;6.85;;
26062;SDS011;13837;48.562;12.108;2022-09-28T10:36:32;6.90;;;6.40;;
26062;SDS011;13837;48.562;12.108;2022-09-28T10:42:22;7.10;;;6.70;;
26062;SDS011;13837;48.562;12.108;2022-09-28T10:49:57;7.45;;;7.15;;
26062;SDS011;13837;48.562;12.108;2022-09-28T10:57:45;7.03;;;6.72;;
26062;SDS011;13837;48.562;12.108;2022-09-28T11:00:28;6.82;;;6.53;;
26062;SDS011;13837;48.562;12.108;2022-09-28T11:03:20;6.80;;;6.50;;
26062;SDS011;13837;48.562;12.108;2022-09-28T11:05:53;7.15;;;6.85;;
26062;SDS011;13837;48.562;12.108;2022-09-28T11:08:21;6.90;;;6.50;;
26062;SDS011;13837;48.562;12.108;2022-09-28T11:11:01;7.80;;;7.30;;
26062;SDS011;13837;48.562;12.108;2022-09-28T11:13:46;7.75;;;7.40;;
26062;SDS011;13837;48.562;12.108;2022-09-28T11:16:27;8.75;;;8.25;;
26062;SDS011;13837;48.562;12.108;2022-09-28T11:18:56;7.95;;;7.35;;
26062;SDS011;13837;48.562;12.108;2022-09-28T11:21:28;7.30;;;6.93;;
26062;SDS011;13837;48.562;12.108;2022-09-28T11:26:49;8.13;;;7.65;;
26062;SDS011;13837;48.562;12.108;2022-09-28T11:29:29;8.00;;;7.55;;
26062;SDS011;13837;48.562;12.108;2022-09-28T11:32:29;7.50;;;6.90;;
26062;SDS011;13837;48.562;12.108;2022-09-28T11:35:18;6.63;;;6.20;;
26062;SDS011;13837;48.562;12.108;2022-09-28T11:38:10;7.50;;;6.90;;
26062;SDS011;13837;48.562;12.108;2022-09-28T11:58:22;6.65;;;6.18;;
26062;SDS011;13837;48.562;12.108;2022-09-28T12:04:13;7.47;;;6.80;;
26062;SDS011;13837;48.562;12.108;2022-09-28T12:06:48;6.05;;;5.85;;
26062;SDS011;13837;48.562;12.108;2022-09-28T12:09:24;6.20;;;5.93;;
26062;SDS011;13837;48.562;12.108;2022-09-28T12:12:14;6.25;;;5.65;;
26062;SDS011;13837;48.562;12.108;2022-09-28T12:14:52;6.47;;;6.07;;
26062;SDS011;13837;48.562;12.108;2022-09-28T12:17:23;6.45;;;6.05;;
26062;SDS011;13837;48.562;12.108;2022-09-28T12:25:23;5.70;;;5.30;;
26062;SDS011;13837;48.562;12.108;2022-09-28T12:30:22;2.78;;;1.20;;
26062;SDS011;13837;48.562;12.108;2022-09-28T12:32:54;2.10;;;1.70;;
26062;SDS011;13837;48.562;12.108;2022-09-28T12:40:51;3.58;;;1.63;;
26062;SDS011;13837;48.562;12.108;2022-09-28T12:51:50;1.80;;;1.70;;
26062;SDS011;13837;48.562;12.108;2022-09-28T12:57:34;5.03;;;3.28;;
26062;SDS011;13837;48.562;12.108;2022-09-28T13:00:23;8.90;;;5.53;;
26062;SDS011;13837;48.562;12.108;2022-09-28T13:08:40;5.57;;;2.40;;
26062;SDS011;13837;48.562;12.108;2022-09-28T13:19:48;4.97;;;2.90;;
26062;SDS011;13837;48.562;12.108;2022-09-28T13:22:37;10.63;;;4.93;;
26062;SDS011;13837;48.562;12.108;2022-09-28T13:25:06;7.05;;;4.70;;
26062;SDS011;13837;48.562;12.108;2022-09-28T13:27:43;7.95;;;4.35;;
26062;SDS011;13837;48.562;12.108;2022-09-28T13:30:15;8.63;;;4.40;;
26062;SDS011;13837;48.562;12.108;2022-09-28T13:32:43;3.28;;;2.97;;
26062;SDS011;13837;48.562;12.108;2022-09-28T13:35:15;6.00;;;3.40;;
26062;SDS011;13837;48.562;12.108;2022-09-28T13:37:45;4.57;;;2.53;;
26062;SDS011;13837;48.562;12.108;2022-09-28T13:40:11;4.18;;;2.50;;
26062;SDS011;13837;48.562;12.108;2022-09-28T13:59:56;3.75;;;2.88;;
26062;SDS011;13837;48.562;12.108;2022-09-28T14:02:41;4.60;;;3.65;;
26062;SDS011;13837;48.562;12.108;2022-09-28T14:10:49;12.95;;;6.03;;
26062;SDS011;13837;48.562;12.108;2022-09-28T14:16:18;3.25;;;2.65;;
26062;SDS011;13837;48.562;12.108;2022-09-28T14:30:05;5.18;;;3.55;;
26062;SDS011;13837;48.562;12.108;2022-09-28T14:32:41;3.92;;;2.55;;
26062;SDS011;13837;48.562;12.108;2022-09-28T14:35:18;3.15;;;1.90;;
26062;SDS011;13837;48.562;12.108;2022-09-28T14:37:54;3.53;;;1.88;;
26062;SDS011;13837;48.562;12.108;2022-09-28T14:43:56;2.95;;;2.75;;
26062;SDS011;13837;48.562;12.108;2022-09-28T14:46:29;2.97;;;2.45;;
26062;SDS011;13837;48.562;12.108;2022-09-28T14:49:41;2.35;;;2.10;;
26062;SDS011;13837;48.562;12.108;2022-09-28T14:52:09;4.18;;;2.88;;
26062;SDS011;13837;48.562;12.108;2022-09-28T14:54:37;2.42;;;2.22;;
26062;SDS011;13837;48.562;12.108;2022-09-28T14:57:09;2.05;;;1.95;;
26062;SDS011;13837;48.562;12.108;2022-09-28T14:59:42;3.35;;;2.10;;
26062;SDS011;13837;48.562;12.108;2022-09-28T15:04:39;4.03;;;2.80;;
26062;SDS011;13837;48.562;12.108;2022-09-28T15:08:08;3.35;;;2.50;;
26062;SDS011;13837;48.562;12.108;2022-09-28T15:10:20;4.85;;;2.90;;
26062;SDS011;13837;48.562;12.108;2022-09-28T15:12:49;6.07;;;2.67;;
26062;SDS011;13837;48.562;12.108;2022-09-28T15:15:29;3.15;;;2.40;;
26062;SDS011;13837;48.562;12.108;2022-09-28T15:18:12;5.18;;;3.22;;
26062;SDS011;13837;48.562;12.108;2022-09-28T15:20:59;4.68;;;4.00;;
26062;SDS011;13837;48.562;12.108;2022-09-28T15:25:57;5.22;;;3.40;;
26062;SDS011;13837;48.562;12.108;2022-09-28T15:28:23;6.72;;;3.30;;
26062;SDS011;13837;48.562;12.108;2022-09-28T15:30:49;3.78;;;3.38;;
26062;SDS011;13837;48.562;12.108;2022-09-28T15:33:32;3.00;;;2.72;;
26062;SDS011;13837;48.562;12.108;2022-09-28T15:36:18;5.40;;;4.90;;
26062;SDS011;13837;48.562;12.108;2022-09-28T15:41:25;6.35;;;4.05;;
26062;SDS011;13837;48.562;12.108;2022-09-28T15:46:37;4.80;;;3.55;;
26062;SDS011;13837;48.562;12.108;2022-09-28T15:49:05;10.32;;;6.38;;
26062;SDS011;13837;48.562;12.108;2022-09-28T15:51:51;11.10;;;5.55;;
26062;SDS011;13837;48.562;12.108;2022-09-28T15:54:21;10.70;;;6.05;;
26062;SDS011;13837;48.562;12.108;2022-09-28T15:56:52;5.22;;;4.72;;
26062;SDS011;13837;48.562;12.108;2022-09-28T15:59:32;7.80;;;6.18;;
26062;SDS011;13837;48.562;12.108;2022-09-28T16:02:10;24.38;;;12.00;;
26062;SDS011;13837;48.562;12.108;2022-09-28T16:10:03;7.05;;;5.57;;
26062;SDS011;13837;48.562;12.108;2022-09-28T16:17:50;6.50;;;4.97;;
26062;SDS011;13837;48.562;12.108;2022-09-28T16:22:46;17.33;;;12.32;;
26062;SDS011;13837;48.562;12.108;2022-09-28T16:25:17;8.90;;;7.35;;
26062;SDS011;13837;48.562;12.108;2022-09-28T16:27:48;14.60;;;8.95;;
26062;SDS011;13837;48.562;12.108;2022-09-28T16:35:51;8.35;;;5.78;;
26062;SDS011;13837;48.562;12.108;2022-09-28T16:38:17;5.43;;;4.88;;
26062;SDS011;13837;48.562;12.108;2022-09-28T16:40:44;9.73;;;8.40;;
26062;SDS011;13837;48.562;12.108;2022-09-28T16:43:32;8.90;;;7.05;;
26062;SDS011;13837;48.562;12.108;2022-09-28T16:46:04;10.50;;;9.50;;
26062;SDS011;13837;48.562;12.108;2022-09-28T16:48:44;12.13;;;10.20;;
26062;SDS011;13837;48.562;12.108;2022-09-28T16:51:15;13.85;;;11.75;;
26062;SDS011;13837;48.562;12.108;2022-09-28T16:53:45;10.77;;;8.82;;
26062;SDS011;13837;48.562;12.108;2022-09-28T16:56:30;9.18;;;8.30;;
26062;SDS011;13837;48.562;12.108;2022-09-28T16:58:57;12.65;;;10.63;;
26062;SDS011;13837;48.562;12.108;2022-09-28T17:01:23;6.90;;;5.65;;
26062;SDS011;13837;48.562;12.108;2022-09-28T17:03:50;13.02;;;9.55;;
26062;SDS011;13837;48.562;12.108;2022-09-28T17:06:16;8.68;;;7.78;;
26062;SDS011;13837;48.562;12.108;2022-09-28T17:08:44;17.60;;;15.52;;
26062;SDS011;13837;48.562;12.108;2022-09-28T17:11:14;14.88;;;11.82;;
26062;SDS011;13837;48.562;12.108;2022-09-28T17:13:41;17.52;;;12.55;;
26062;SDS011;13837;48.562;12.108;2022-09-28T17:18:39;8.27;;;6.60;;
26062;SDS011;13837;48.562;12.108;2022-09-28T17:21:08;12.95;;;10.10;;
26062;SDS011;13837;48.562;12.108;2022-09-28T17:23:46;11.18;;;10.05;;
26062;SDS011;13837;48.562;12.108;2022-09-28T17:26:16;21.33;;;17.23;;
26062;SDS011;13837;48.562;12.108;2022-09-28T17:28:47;8.68;;;6.00;;
26062;SDS011;13837;48.562;12.108;2022-09-28T17:31:16;9.70;;;6.28;;
26062;SDS011;13837;48.562;12.108;2022-09-28T17:33:42;9.00;;;6.38;;
26062;SDS011;13837;48.562;12.108;2022-09-28T17:36:08;7.38;;;5.60;;
26062;SDS011;13837;48.562;12.108;2022-09-28T17:38:38;5.70;;;5.13;;
26062;SDS011;13837;48.562;12.108;2022-09-28T17:41:04;10.10;;;5.40;;
26062;SDS011;13837;48.562;12.108;2022-09-28T17:43:29;8.55;;;5.90;;
26062;SDS011;13837;48.562;12.108;2022-09-28T17:45:55;6.28;;;5.68;;
26062;SDS011;13837;48.562;12.108;2022-09-28T17:48:21;14.27;;;12.90;;
26062;SDS011;13837;48.562;12.108;2022-09-28T17:50:47;13.70;;;10.27;;
26062;SDS011;13837;48.562;12.108;2022-09-28T17:53:14;13.05;;;9.50;;
26062;SDS011;13837;48.562;12.108;2022-09-28T17:55:41;14.52;;;11.27;;
26062;SDS011;13837;48.562;12.108;2022-09-28T17:58:11;21.83;;;17.08;;
26062;SDS011;13837;48.562;12.108;2022-09-28T18:00:40;24.75;;;18.40;;
26062;SDS011;13837;48.562;12.108;2022-09-28T18:03:14;25.45;;;19.52;;
26062;SDS011;13837;48.562;12.108;2022-09-28T18:05:44;8.35;;;7.45;;
26062;SDS011;13837;48.562;12.108;2022-09-28T18:08:16;8.10;;;6.30;;
26062;SDS011;13837;48.562;12.108;2022-09-28T18:10:44;8.90;;;6.72;;
26062;SDS011;13837;48.562;12.108;2022-09-28T18:13:11;7.40;;;5.97;;
26062;SDS011;13837;48.562;12.108;2022-09-28T18:15:37;8.35;;;6.28;;
26062;SDS011;13837;48.562;12.108;2022-09-28T18:18:03;8.82;;;7.13;;
26062;SDS011;13837;48.562;12.108;2022-09-28T18:20:29;7.72;;;6.97;;
26062;SDS011;13837;48.562;12.108;2022-09-28T18:22:56;13.40;;;9.05;;
26062;SDS011;13837;48.562;12.108;2022-09-28T18:25:22;13.07;;;11.40;;
26062;SDS011;13837;48.562;12.108;2022-09-28T18:27:47;12.35;;;8.40;;
26062;SDS011;13837;48.562;12.108;2022-09-28T18:30:13;7.43;;;6.65;;
26062;SDS011;13837;48.562;12.108;2022-09-28T18:32:39;10.80;;;6.57;;
26062;SDS011;13837;48.562;12.108;2022-09-28T18:35:05;8.85;;;6.97;;
26062;SDS011;13837;48.562;12.108;2022-09-28T18:37:37;9.98;;;6.63;;
26062;SDS011;13837;48.562;12.108;2022-09-28T18:40:04;8.90;;;6.70;;
26062;SDS011;13837;48.562;12.108;2022-09-28T18:42:31;8.98;;;7.50;;
26062;SDS011;13837;48.562;12.108;2022-09-28T18:45:00;10.88;;;7.65;;
26062;SDS011;13837;48.562;12.108;2022-09-28T18:47:27;10.95;;;7.00;;
26062;SDS011;13837;48.562;12.108;2022-09-28T18:49:53;12.02;;;8.98;;
26062;SDS011;13837;48.562;12.108;2022-09-28T18:52:18;9.60;;;8.60;;
26062;SDS011;13837;48.562;12.108;2022-09-28T18:54:44;9.85;;;7.50;;
26062;SDS011;13837;48.562;12.108;2022-09-28T18:57:11;10.82;;;8.55;;